Time;durP1;ratioP1;P1;durP2;ratioP2;P2;SDS_P1;SDS_P2;PMS_P1;PMS_P2;Temp;Humidity;BMP_temperature;BMP_pressure;BME280_temperature;BME280_humidity;BME280_pressure;Samples;Min_cycle;Max_cycle;Signal;HPM_P1;HPM_P2
2021/03/11 06:00:44;;;;;;;;;;;;;;;;;;5070606;28;20382;-61
2021/03/11 06:03:10;;;;;;;7.72;1.42;;;;;;;;;;5072202;28;19926;-61
2021/03/11 06:05:37;;;;;;;17.13;3.92;;;;;;;;;;5068571;28;20444;-60
2021/03/11 06:08:06;;;;;;;34.67;4.57;;;;;;;;;;5068906;28;20028;-61
2021/03/11 06:10:32;;;;;;;24.75;4.80;;;;;;;;;;5068695;28;20537;-60
2021/03/11 06:12:59;;;;;;;23.45;4.03;;;;;;;;;;5066172;28;20029;-61
2021/03/11 06:15:25;;;;;;;9.30;1.55;;;;;;;;;;5068589;28;20033;-61
2021/03/11 06:17:52;;;;;;;9.73;2.00;;;;;;;;;;5069532;28;20033;-61
2021/03/11 06:20:18;;;;;;;5.78;1.42;;;;;;;;;;5067511;28;20024;-61
2021/03/11 06:22:44;;;;;;;2.35;1.23;;;;;;;;;;5068071;28;20033;-61
2021/03/11 06:25:11;;;;;;;20.65;2.30;;;;;;;;;;5066581;28;20115;-61
2021/03/11 06:27:37;;;;;;;10.98;2.30;;;;;;;;;;5065777;28;20033;-60
2021/03/11 06:30:04;;;;;;;15.23;3.08;;;;;;;;;;5079727;28;20541;-60
2021/03/11 06:32:30;;;;;;;17.25;4.03;;;;;;;;;;5077639;28;20064;-61
2021/03/11 06:34:56;;;;;;;10.77;1.95;;;;;;;;;;5075549;28;20028;-61
2021/03/11 06:37:36;;;;;;;11.80;2.63;;;;;;;;;;5067797;28;20032;-61
2021/03/11 06:40:12;;;;;;;10.52;2.78;;;;;;;;;;5064987;28;20017;-61
2021/03/11 06:42:38;;;;;;;5.15;1.40;;;;;;;;;;5065068;28;20055;-61
2021/03/11 06:45:18;;;;;;;19.95;4.78;;;;;;;;;;5070071;28;20094;-60
2021/03/11 06:47:45;;;;;;;12.60;1.40;;;;;;;;;;5068426;28;20619;-60
2021/03/11 06:50:11;;;;;;;19.42;5.57;;;;;;;;;;5067667;28;20402;-61
2021/03/11 06:52:37;;;;;;;18.52;2.90;;;;;;;;;;5067135;28;20447;-61
2021/03/11 06:55:05;;;;;;;11.80;2.92;;;;;;;;;;5065221;28;20029;-61
2021/03/11 06:57:34;;;;;;;5.65;2.13;;;;;;;;;;5066875;28;20444;-61
2021/03/11 07:00:01;;;;;;;20.40;2.30;;;;;;;;;;5065273;28;20057;-60
2021/03/11 07:02:28;;;;;;;16.88;1.80;;;;;;;;;;5049787;28;20033;-61
2021/03/11 07:04:55;;;;;;;1.45;0.68;;;;;;;;;;5049615;28;20086;-61
2021/03/11 07:07:22;;;;;;;30.10;5.32;;;;;;;;;;5049257;28;20036;-61
2021/03/11 07:09:49;;;;;;;21.95;3.70;;;;;;;;;;5046061;28;20433;-60
2021/03/11 07:12:15;;;;;;;29.10;8.38;;;;;;;;;;5049811;28;20950;-61
2021/03/11 07:14:42;;;;;;;2.85;1.55;;;;;;;;;;5047527;28;20079;-60
2021/03/11 07:17:19;;;;;;;5.53;2.15;;;;;;;;;;5048989;28;20028;-60
2021/03/11 07:20:04;;;;;;;8.98;2.45;;;;;;;;;;5046098;28;20037;-61
2021/03/11 07:22:30;;;;;;;21.27;5.00;;;;;;;;;;5045231;28;20036;-60
2021/03/11 07:24:56;;;;;;;18.85;2.80;;;;;;;;;;5049396;28;20281;-60
2021/03/11 07:27:22;;;;;;;19.98;3.92;;;;;;;;;;5051092;28;20068;-60
2021/03/11 07:30:02;;;;;;;2.97;1.08;;;;;;;;;;5051493;28;20037;-60
2021/03/11 07:32:28;;;;;;;10.45;1.27;;;;;;;;;;5049143;28;20043;-60
2021/03/11 07:34:54;;;;;;;17.70;4.28;;;;;;;;;;5050513;28;20422;-60
2021/03/11 07:37:21;;;;;;;15.52;3.45;;;;;;;;;;5050440;28;20028;-60
2021/03/11 07:39:48;;;;;;;31.77;2.53;;;;;;;;;;5049390;28;20565;-60
2021/03/11 07:42:14;;;;;;;14.50;1.25;;;;;;;;;;5050402;28;20521;-60
2021/03/11 07:44:40;;;;;;;6.32;2.10;;;;;;;;;;5050245;28;20024;-60
2021/03/11 07:47:07;;;;;;;18.23;4.53;;;;;;;;;;5050761;28;20067;-60
2021/03/11 07:49:34;;;;;;;0.57;0.57;;;;;;;;;;5048587;28;20041;-60
2021/03/11 07:52:01;;;;;;;11.82;3.03;;;;;;;;;;5050870;28;20036;-59
2021/03/11 07:54:31;;;;;;;13.98;2.83;;;;;;;;;;5049399;28;20025;-61
2021/03/11 07:56:57;;;;;;;23.65;3.30;;;;;;;;;;5052043;28;20090;-60
2021/03/11 07:59:24;;;;;;;10.73;2.22;;;;;;;;;;5049967;28;20045;-61
2021/03/11 08:01:52;;;;;;;14.98;2.10;;;;;;;;;;5050087;28;20482;-60
2021/03/11 08:04:19;;;;;;;8.70;1.80;;;;;;;;;;5050076;28;20025;-61
2021/03/11 08:06:46;;;;;;;11.45;1.92;;;;;;;;;;5048630;28;20116;-61
2021/03/11 08:09:12;;;;;;;7.53;2.83;;;;;;;;;;5050631;28;20060;-61
2021/03/11 08:11:42;;;;;;;16.48;3.38;;;;;;;;;;5047808;28;20029;-61
2021/03/11 08:14:22;;;;;;;11.98;2.30;;;;;;;;;;5049864;28;20036;-60
2021/03/11 08:16:48;;;;;;;8.38;2.15;;;;;;;;;;5047735;28;20052;-60
2021/03/11 08:19:43;;;;;;;3.28;0.90;;;;;;;;;;5049692;28;20028;-61
2021/03/11 08:22:09;;;;;;;0.90;0.65;;;;;;;;;;5036644;28;20486;-61
2021/03/11 08:24:48;;;;;;;1.15;0.82;;;;;;;;;;5049153;28;20032;-60
2021/03/11 08:27:33;;;;;;;6.32;1.35;;;;;;;;;;5051109;28;20076;-61
2021/03/11 08:29:59;;;;;;;1.95;0.52;;;;;;;;;;5049895;28;20109;-61
2021/03/11 08:32:44;;;;;;;2.10;1.33;;;;;;;;;;5049344;28;20009;-61
2021/03/11 08:35:28;;;;;;;14.50;2.70;;;;;;;;;;5048121;28;20486;-61
2021/03/11 08:37:59;;;;;;;17.02;3.60;;;;;;;;;;5048342;28;20037;-61
2021/03/11 08:40:34;;;;;;;5.13;1.02;;;;;;;;;;5049401;28;20082;-60
2021/03/11 08:43:01;;;;;;;13.35;0.95;;;;;;;;;;5048186;28;20021;-60
2021/03/11 08:45:36;;;;;;;8.35;3.70;;;;;;;;;;5037957;28;20029;-60
2021/03/11 08:48:16;;;;;;;6.95;1.05;;;;;;;;;;5050169;28;20418;-60
2021/03/11 08:50:42;;;;;;;9.50;1.42;;;;;;;;;;5049744;28;20029;-60
2021/03/11 08:53:09;;;;;;;6.25;1.10;;;;;;;;;;5047819;28;20074;-60
2021/03/11 08:55:36;;;;;;;7.85;2.28;;;;;;;;;;5047432;28;20029;-61
2021/03/11 08:58:03;;;;;;;20.35;5.60;;;;;;;;;;5047118;28;20405;-60
2021/03/11 09:00:48;;;;;;;3.10;0.85;;;;;;;;;;5048952;28;20418;-60
2021/03/11 09:03:33;;;;;;;1.30;1.20;;;;;;;;;;5051456;28;20068;-60
2021/03/11 09:05:59;;;;;;;6.35;2.90;;;;;;;;;;5049721;28;20033;-60
2021/03/11 09:08:25;;;;;;;19.48;1.55;;;;;;;;;;5047286;28;20040;-60
2021/03/11 09:10:51;;;;;;;6.57;0.85;;;;;;;;;;5047653;28;20025;-61
2021/03/11 09:13:17;;;;;;;5.85;2.08;;;;;;;;;;5047896;28;20537;-60
2021/03/11 09:15:46;;;;;;;0.45;0.45;;;;;;;;;;5037672;28;20033;-60
2021/03/11 09:18:15;;;;;;;2.88;1.00;;;;;;;;;;5050083;28;20025;-60
2021/03/11 09:20:41;;;;;;;7.47;2.38;;;;;;;;;;5049229;28;20029;-60
2021/03/11 09:23:07;;;;;;;10.52;2.47;;;;;;;;;;5046955;28;20024;-60
2021/03/11 09:25:36;;;;;;;11.25;2.78;;;;;;;;;;5047158;28;20112;-59
2021/03/11 09:28:07;;;;;;;1.35;0.50;;;;;;;;;;5044921;28;20518;-60
2021/03/11 09:30:36;;;;;;;9.38;2.20;;;;;;;;;;5048738;28;20040;-60
2021/03/11 09:33:09;;;;;;;2.85;1.42;;;;;;;;;;5048834;28;20103;-60
2021/03/11 09:35:36;;;;;;;16.10;4.18;;;;;;;;;;5046310;28;20060;-60
2021/03/11 09:38:02;;;;;;;5.28;1.05;;;;;;;;;;5048403;28;20079;-60
2021/03/11 09:40:30;;;;;;;8.95;1.88;;;;;;;;;;5048717;28;20473;-60
2021/03/11 09:43:00;;;;;;;11.55;1.63;;;;;;;;;;5047168;28;20026;-60
2021/03/11 09:46:05;;;;;;;14.90;5.45;;;;;;;;;;5048862;28;20031;-60
2021/03/11 09:48:33;;;;;;;11.23;2.50;;;;;;;;;;5001211;28;20121;-60
2021/03/11 09:50:59;;;;;;;6.63;1.63;;;;;;;;;;4987579;28;20034;-60
2021/03/11 09:53:31;;;;;;;13.55;3.08;;;;;;;;;;4987637;28;20038;-60
2021/03/11 09:55:57;;;;;;;4.88;1.63;;;;;;;;;;4987755;28;20057;-60
2021/03/11 09:58:24;;;;;;;5.80;0.90;;;;;;;;;;4987754;28;20105;-60
2021/03/11 10:00:50;;;;;;;5.53;2.30;;;;;;;;;;4986687;28;20571;-60
2021/03/11 10:03:21;;;;;;;11.60;2.28;;;;;;;;;;4990526;28;20022;-60
2021/03/11 10:05:51;;;;;;;7.15;1.58;;;;;;;;;;4988122;28;20047;-60
2021/03/11 10:08:33;;;;;;;9.10;1.42;;;;;;;;;;4987887;28;20038;-60
2021/03/11 10:11:04;;;;;;;10.32;3.28;;;;;;;;;;4987553;28;20041;-60
2021/03/11 10:13:37;;;;;;;8.15;1.63;;;;;;;;;;4987546;28;20078;-60
2021/03/11 10:16:03;;;;;;;10.20;1.67;;;;;;;;;;4986962;28;20499;-60
2021/03/11 10:18:30;;;;;;;0.35;0.32;;;;;;;;;;4996774;28;20041;-60
2021/03/11 10:21:03;;;;;;;5.13;0.55;;;;;;;;;;5049510;28;20040;-60
2021/03/11 10:23:29;;;;;;;15.63;1.73;;;;;;;;;;5046666;28;20087;-60
2021/03/11 10:26:16;;;;;;;2.80;0.82;;;;;;;;;;5045645;28;20078;-60
2021/03/11 10:28:42;;;;;;;12.35;1.38;;;;;;;;;;5047343;28;20527;-60
2021/03/11 10:31:09;;;;;;;17.80;1.90;;;;;;;;;;5047755;28;20550;-60
2021/03/11 10:33:36;;;;;;;12.02;3.40;;;;;;;;;;5047781;28;20055;-60
2021/03/11 10:36:11;;;;;;;3.47;1.33;;;;;;;;;;5051850;28;20028;-60
2021/03/11 10:38:37;;;;;;;3.65;0.75;;;;;;;;;;5049064;28;20449;-60
2021/03/11 10:41:14;;;;;;;15.55;1.52;;;;;;;;;;5048946;28;20483;-59
2021/03/11 10:43:41;;;;;;;2.40;1.17;;;;;;;;;;5051589;28;20055;-60
2021/03/11 10:46:07;;;;;;;5.30;1.13;;;;;;;;;;5052309;28;20108;-60
2021/03/11 10:48:54;;;;;;;0.22;0.22;;;;;;;;;;5052891;28;20045;-60
2021/03/11 10:51:24;;;;;;;9.30;2.67;;;;;;;;;;5051972;28;20040;-61
2021/03/11 10:53:50;;;;;;;19.83;3.38;;;;;;;;;;5052211;28;20033;-60
2021/03/11 10:56:16;;;;;;;8.75;1.33;;;;;;;;;;5051653;28;20021;-61
2021/03/11 10:58:43;;;;;;;6.57;1.23;;;;;;;;;;5049476;28;20033;-60
2021/03/11 11:01:10;;;;;;;7.10;1.85;;;;;;;;;;5053796;28;20040;-59
2021/03/11 11:03:37;;;;;;;4.10;0.65;;;;;;;;;;5050007;28;20043;-66
2021/03/11 11:06:04;;;;;;;5.85;0.40;;;;;;;;;;5052950;28;20438;-63
2021/03/11 11:08:30;;;;;;;10.52;1.40;;;;;;;;;;5051051;28;20047;-65
2021/03/11 11:10:56;;;;;;;7.72;1.13;;;;;;;;;;5050248;28;20031;-69
2021/03/11 11:13:23;;;;;;;3.00;0.52;;;;;;;;;;5050375;28;20035;-69
2021/03/11 11:15:49;;;;;;;4.60;1.05;;;;;;;;;;5050069;28;20025;-59
2021/03/11 11:18:16;;;;;;;3.40;0.75;;;;;;;;;;5052814;28;20025;-59
2021/03/11 11:20:42;;;;;;;5.22;1.88;;;;;;;;;;5049235;28;20031;-60
2021/03/11 11:23:08;;;;;;;1.35;0.80;;;;;;;;;;5049026;28;20025;-60
2021/03/11 11:25:34;;;;;;;9.45;0.98;;;;;;;;;;5050030;28;20112;-56
2021/03/11 11:28:00;;;;;;;9.95;2.40;;;;;;;;;;5049544;28;20029;-60
2021/03/11 11:30:27;;;;;;;1.38;0.82;;;;;;;;;;5049915;28;20037;-57
2021/03/11 11:32:53;;;;;;;3.65;0.60;;;;;;;;;;5051496;28;20114;-59
2021/03/11 11:35:21;;;;;;;3.55;0.77;;;;;;;;;;5049385;28;20498;-59
2021/03/11 11:37:48;;;;;;;3.00;0.82;;;;;;;;;;5049915;28;20074;-54
2021/03/11 11:40:14;;;;;;;3.22;0.40;;;;;;;;;;5048834;28;20036;-60
2021/03/11 11:42:41;;;;;;;7.97;2.15;;;;;;;;;;5050273;28;20033;-59
2021/03/11 11:45:08;;;;;;;16.45;2.10;;;;;;;;;;5051758;28;20025;-58
2021/03/11 11:47:34;;;;;;;14.18;2.28;;;;;;;;;;5048598;28;20060;-54
2021/03/11 11:50:00;;;;;;;11.65;1.55;;;;;;;;;;5049349;28;20118;-59
2021/03/11 11:52:27;;;;;;;0.22;0.22;;;;;;;;;;5049675;28;20453;-57
2021/03/11 11:54:53;;;;;;;6.93;2.55;;;;;;;;;;5049945;28;20108;-60
2021/03/11 11:57:19;;;;;;;12.02;2.75;;;;;;;;;;5051556;28;20071;-59
2021/03/11 11:59:45;;;;;;;4.35;1.00;;;;;;;;;;5050477;28;20041;-60
2021/03/11 12:02:12;;;;;;;2.08;0.40;;;;;;;;;;5048372;28;20029;-60
2021/03/11 12:04:38;;;;;;;2.97;1.00;;;;;;;;;;5048443;28;20025;-58
2021/03/11 12:07:04;;;;;;;2.17;0.20;;;;;;;;;;5046221;28;20036;-60
2021/03/11 12:09:30;;;;;;;1.95;0.20;;;;;;;;;;5047960;28;20063;-57
2021/03/11 12:11:56;;;;;;;1.13;0.65;;;;;;;;;;5050938;28;20025;-60
2021/03/11 12:14:22;;;;;;;8.98;1.83;;;;;;;;;;5049686;28;20426;-57
2021/03/11 12:16:48;;;;;;;0.82;0.63;;;;;;;;;;5049092;28;20036;-59
2021/03/11 12:19:14;;;;;;;2.00;0.28;;;;;;;;;;5049917;28;20426;-60
2021/03/11 12:21:40;;;;;;;7.43;0.70;;;;;;;;;;5048996;28;24230;-60
2021/03/11 12:24:07;;;;;;;8.02;0.82;;;;;;;;;;5051251;28;20039;-59
2021/03/11 12:26:33;;;;;;;3.60;1.02;;;;;;;;;;5048598;28;20028;-60
2021/03/11 12:29:00;;;;;;;1.58;0.43;;;;;;;;;;5048351;28;20043;-60
2021/03/11 12:31:28;;;;;;;1.75;0.85;;;;;;;;;;5046504;28;20040;-57
2021/03/11 12:33:55;;;;;;;4.63;1.55;;;;;;;;;;5049093;28;20435;-61
2021/03/11 12:36:21;;;;;;;0.30;0.20;;;;;;;;;;5049601;28;20017;-59
2021/03/11 12:38:47;;;;;;;3.53;0.77;;;;;;;;;;5049123;28;20021;-60
2021/03/11 12:41:13;;;;;;;3.97;0.38;;;;;;;;;;5048695;28;20037;-60
2021/03/11 12:43:40;;;;;;;3.10;0.60;;;;;;;;;;5047714;28;20024;-60
2021/03/11 12:46:07;;;;;;;2.05;0.50;;;;;;;;;;5050156;28;20028;-61
2021/03/11 12:48:33;;;;;;;2.10;1.10;;;;;;;;;;5048589;28;20041;-61
2021/03/11 12:51:00;;;;;;;3.40;0.82;;;;;;;;;;5049357;28;20107;-58
2021/03/11 12:53:27;;;;;;;5.68;0.52;;;;;;;;;;5047137;28;20533;-61
2021/03/11 12:55:54;;;;;;;2.78;1.30;;;;;;;;;;5048880;28;20029;-59
2021/03/11 12:58:20;;;;;;;10.07;1.50;;;;;;;;;;5047745;28;20049;-59
2021/03/11 13:00:46;;;;;;;1.55;0.80;;;;;;;;;;5046879;28;20021;-60
2021/03/11 13:03:12;;;;;;;2.22;0.40;;;;;;;;;;5050305;28;20033;-59
2021/03/11 13:05:38;;;;;;;2.00;0.20;;;;;;;;;;5051017;28;20021;-58
2021/03/11 13:08:05;;;;;;;2.97;0.85;;;;;;;;;;5051257;28;20071;-59
2021/03/11 13:10:32;;;;;;;0.10;0.10;;;;;;;;;;5049768;28;20040;-60
2021/03/11 13:12:58;;;;;;;12.15;2.35;;;;;;;;;;5048154;28;20534;-56
2021/03/11 13:15:25;;;;;;;12.63;1.23;;;;;;;;;;5049876;28;20037;-60
2021/03/11 13:17:51;;;;;;;26.40;2.15;;;;;;;;;;5049712;28;20044;-60
2021/03/11 13:20:19;;;;;;;3.30;0.68;;;;;;;;;;5046318;28;20138;-56
2021/03/11 13:22:45;;;;;;;11.30;2.92;;;;;;;;;;5047925;28;20455;-59
2021/03/11 13:25:12;;;;;;;7.25;1.35;;;;;;;;;;5047538;28;20029;-60
2021/03/11 13:27:38;;;;;;;9.02;2.17;;;;;;;;;;5048207;28;20539;-61
2021/03/11 13:30:05;;;;;;;4.30;1.08;;;;;;;;;;5050028;28;20032;-60
2021/03/11 13:32:31;;;;;;;7.90;1.80;;;;;;;;;;5048303;28;20021;-60
2021/03/11 13:34:57;;;;;;;4.53;2.03;;;;;;;;;;5047086;28;20117;-60
2021/03/11 13:37:24;;;;;;;7.28;1.95;;;;;;;;;;5048485;28;20021;-59
2021/03/11 13:39:50;;;;;;;14.50;1.13;;;;;;;;;;5047355;28;20036;-60
2021/03/11 13:42:17;;;;;;;4.50;0.60;;;;;;;;;;5050761;28;20021;-60
2021/03/11 13:44:43;;;;;;;9.00;1.80;;;;;;;;;;5047456;28;20028;-60
2021/03/11 13:47:09;;;;;;;1.77;0.93;;;;;;;;;;5046910;28;20479;-60
2021/03/11 13:49:35;;;;;;;4.43;0.98;;;;;;;;;;5046600;28;20048;-60
2021/03/11 13:52:01;;;;;;;3.13;0.98;;;;;;;;;;5040749;28;20014;-60
2021/03/11 13:54:27;;;;;;;5.70;0.63;;;;;;;;;;5048362;28;20413;-59
2021/03/11 13:56:54;;;;;;;17.08;2.00;;;;;;;;;;5048386;28;20021;-61
2021/03/11 13:59:21;;;;;;;14.88;2.13;;;;;;;;;;5046876;28;20049;-61
2021/03/11 14:01:47;;;;;;;7.80;1.88;;;;;;;;;;5047019;28;20123;-60
2021/03/11 14:04:14;;;;;;;1.88;0.35;;;;;;;;;;5046201;28;20383;-60
2021/03/11 14:06:40;;;;;;;12.93;2.85;;;;;;;;;;5047825;28;20068;-60
2021/03/11 14:09:06;;;;;;;6.18;1.90;;;;;;;;;;5049753;28;20186;-59
2021/03/11 14:11:32;;;;;;;9.27;1.08;;;;;;;;;;5049202;28;20029;-60
2021/03/11 14:13:58;;;;;;;7.05;0.70;;;;;;;;;;5050394;28;20055;-60
2021/03/11 14:16:24;;;;;;;7.35;1.33;;;;;;;;;;5049009;28;20021;-60
2021/03/11 14:18:50;;;;;;;1.23;0.95;;;;;;;;;;5050281;28;20121;-60
2021/03/11 14:21:17;;;;;;;8.25;2.10;;;;;;;;;;5054180;28;20025;-60
2021/03/11 14:23:43;;;;;;;13.00;3.20;;;;;;;;;;5050874;28;20078;-60
2021/03/11 14:26:09;;;;;;;7.78;0.52;;;;;;;;;;5050408;28;20017;-60
2021/03/11 14:28:35;;;;;;;17.48;1.17;;;;;;;;;;5050541;28;20037;-60
2021/03/11 14:31:02;;;;;;;7.45;0.98;;;;;;;;;;5052210;28;20036;-60
2021/03/11 14:33:28;;;;;;;4.78;0.88;;;;;;;;;;5051966;28;20488;-60
2021/03/11 14:35:54;;;;;;;2.92;0.45;;;;;;;;;;5053575;28;20025;-61
2021/03/11 14:38:20;;;;;;;0.57;0.30;;;;;;;;;;5051924;28;20040;-60
2021/03/11 14:40:46;;;;;;;2.53;0.95;;;;;;;;;;5051944;28;20104;-61
2021/03/11 14:43:12;;;;;;;15.27;3.58;;;;;;;;;;5052324;28;20033;-60
2021/03/11 14:45:39;;;;;;;0.32;0.32;;;;;;;;;;5051860;28;20103;-60
2021/03/11 14:48:05;;;;;;;3.95;1.95;;;;;;;;;;5053348;28;20025;-60
2021/03/11 14:50:31;;;;;;;2.85;0.88;;;;;;;;;;5051794;28;21098;-61
2021/03/11 14:52:58;;;;;;;7.22;1.05;;;;;;;;;;5048730;28;20013;-59
2021/03/11 14:55:26;;;;;;;6.40;1.42;;;;;;;;;;5051038;28;20051;-60
2021/03/11 14:57:53;;;;;;;14.25;2.25;;;;;;;;;;5051922;28;20415;-61
2021/03/11 15:00:20;;;;;;;1.15;0.60;;;;;;;;;;5051590;28;20494;-62
2021/03/11 15:02:46;;;;;;;11.15;2.72;;;;;;;;;;5052147;28;20120;-61
2021/03/11 15:05:12;;;;;;;14.45;4.35;;;;;;;;;;5050976;28;20035;-60
2021/03/11 15:07:41;;;;;;;10.95;2.25;;;;;;;;;;5050811;28;20037;-60
2021/03/11 15:10:07;;;;;;;5.28;1.08;;;;;;;;;;5051089;28;20037;-60
2021/03/11 15:12:34;;;;;;;4.43;2.42;;;;;;;;;;5051470;28;20025;-60
2021/03/11 15:15:00;;;;;;;4.68;0.75;;;;;;;;;;5050318;28;20025;-60
2021/03/11 15:17:27;;;;;;;3.40;1.00;;;;;;;;;;5050072;28;20017;-60
2021/03/11 15:19:53;;;;;;;7.05;1.02;;;;;;;;;;5050201;28;20452;-61
2021/03/11 15:22:19;;;;;;;8.52;1.13;;;;;;;;;;5049976;28;20029;-60
2021/03/11 15:24:46;;;;;;;8.18;2.30;;;;;;;;;;5050041;28;20037;-60
2021/03/11 15:27:13;;;;;;;2.90;0.85;;;;;;;;;;5052734;28;20056;-60
2021/03/11 15:29:40;;;;;;;1.27;0.40;;;;;;;;;;5050661;28;20056;-61
2021/03/11 15:32:07;;;;;;;10.77;2.85;;;;;;;;;;5050102;28;20122;-60
2021/03/11 15:34:33;;;;;;;4.55;0.52;;;;;;;;;;5050595;28;20151;-60
2021/03/11 15:37:00;;;;;;;12.57;1.70;;;;;;;;;;5050718;28;20100;-59
2021/03/11 15:39:26;;;;;;;3.75;1.23;;;;;;;;;;5051034;28;20028;-60
2021/03/11 15:41:53;;;;;;;18.38;1.85;;;;;;;;;;5051607;28;20359;-60
2021/03/11 15:44:21;;;;;;;2.92;0.60;;;;;;;;;;5050237;28;20025;-60
2021/03/11 15:46:47;;;;;;;12.20;2.20;;;;;;;;;;5050307;28;20025;-60
2021/03/11 15:49:13;;;;;;;1.33;0.43;;;;;;;;;;5050387;28;20040;-60
2021/03/11 15:51:39;;;;;;;5.95;0.50;;;;;;;;;;5046301;28;20584;-61
2021/03/11 15:54:06;;;;;;;7.63;0.47;;;;;;;;;;5048287;28;20025;-62
2021/03/11 15:56:32;;;;;;;0.35;0.25;;;;;;;;;;5046619;28;20028;-61
2021/03/11 15:58:58;;;;;;;1.45;0.65;;;;;;;;;;5046658;28;20053;-61
2021/03/11 16:01:24;;;;;;;8.73;3.97;;;;;;;;;;5048510;28;20041;-60
2021/03/11 16:03:50;;;;;;;3.53;0.75;;;;;;;;;;5049742;28;20399;-61
2021/03/11 16:06:17;;;;;;;7.63;1.02;;;;;;;;;;5050692;28;20514;-60
2021/03/11 16:08:43;;;;;;;12.23;1.67;;;;;;;;;;5049319;28;20418;-61
2021/03/11 16:11:09;;;;;;;6.25;1.95;;;;;;;;;;5048463;28;20032;-60
2021/03/11 16:13:35;;;;;;;1.30;0.50;;;;;;;;;;5048856;28;20074;-61
2021/03/11 16:16:01;;;;;;;9.70;1.60;;;;;;;;;;5048948;28;20044;-61
2021/03/11 16:18:27;;;;;;;7.75;2.42;;;;;;;;;;5050845;28;20039;-61
2021/03/11 16:20:54;;;;;;;1.95;0.55;;;;;;;;;;5049565;28;20029;-61
2021/03/11 16:23:20;;;;;;;3.13;1.33;;;;;;;;;;5049960;28;20553;-61
2021/03/11 16:25:46;;;;;;;12.60;3.10;;;;;;;;;;5047876;28;20090;-61
2021/03/11 16:28:12;;;;;;;13.40;1.58;;;;;;;;;;5047522;28;20072;-61
2021/03/11 16:30:39;;;;;;;4.13;1.05;;;;;;;;;;5049103;28;20040;-61
2021/03/11 16:33:05;;;;;;;6.53;1.98;;;;;;;;;;5049301;28;20025;-61
2021/03/11 16:35:31;;;;;;;7.80;1.77;;;;;;;;;;5047600;28;20035;-61
2021/03/11 16:37:58;;;;;;;15.82;8.30;;;;;;;;;;5048774;28;20482;-61
2021/03/11 16:40:24;;;;;;;8.48;0.68;;;;;;;;;;5048939;28;20039;-61
2021/03/11 16:42:51;;;;;;;8.68;4.32;;;;;;;;;;5049053;28;20016;-60
2021/03/11 16:45:19;;;;;;;8.85;1.55;;;;;;;;;;5049374;28;20519;-60
2021/03/11 16:47:47;;;;;;;7.07;1.10;;;;;;;;;;5050067;28;20044;-59
2021/03/11 16:50:13;;;;;;;4.97;0.60;;;;;;;;;;5048929;28;20120;-60
2021/03/11 16:52:39;;;;;;;4.10;1.95;;;;;;;;;;5048687;28;20017;-60
2021/03/11 16:55:06;;;;;;;9.02;1.40;;;;;;;;;;5048997;28;20025;-60
2021/03/11 16:57:32;;;;;;;12.32;2.28;;;;;;;;;;5047610;28;20162;-60
2021/03/11 16:59:58;;;;;;;11.57;3.20;;;;;;;;;;5050817;28;20055;-65
2021/03/11 17:02:25;;;;;;;11.18;1.95;;;;;;;;;;5047780;28;20021;-58
2021/03/11 17:04:51;;;;;;;11.63;2.80;;;;;;;;;;5048101;28;20032;-58
2021/03/11 17:07:17;;;;;;;15.70;3.15;;;;;;;;;;5036551;28;20466;-59
2021/03/11 17:09:43;;;;;;;5.30;2.08;;;;;;;;;;5034451;28;20561;-59
2021/03/11 17:12:10;;;;;;;2.33;0.65;;;;;;;;;;5035036;28;20017;-57
2021/03/11 17:14:36;;;;;;;4.45;0.52;;;;;;;;;;5035938;28;20048;-55
2021/03/11 17:17:02;;;;;;;25.13;1.48;;;;;;;;;;5036293;28;20104;-59
2021/03/11 17:19:28;;;;;;;4.55;0.95;;;;;;;;;;5036853;28;20021;-57
2021/03/11 17:21:54;;;;;;;6.82;1.20;;;;;;;;;;5036438;28;20075;-60
2021/03/11 17:24:21;;;;;;;3.83;1.90;;;;;;;;;;5034471;28;20407;-60
2021/03/11 17:26:48;;;;;;;13.73;1.42;;;;;;;;;;5035788;28;20033;-60
2021/03/11 17:29:14;;;;;;;3.45;0.50;;;;;;;;;;5035970;28;20040;-60
2021/03/11 17:31:40;;;;;;;10.32;2.00;;;;;;;;;;5032011;28;20920;-60
2021/03/11 17:34:08;;;;;;;4.45;1.67;;;;;;;;;;5040353;28;20410;-59
2021/03/11 17:36:34;;;;;;;7.72;2.20;;;;;;;;;;5038688;28;20502;-60
2021/03/11 17:39:00;;;;;;;3.50;0.88;;;;;;;;;;5030435;28;20539;-60
2021/03/11 17:41:26;;;;;;;7.65;1.55;;;;;;;;;;5034630;28;20029;-61
2021/03/11 17:43:52;;;;;;;4.40;0.70;;;;;;;;;;5035173;28;20021;-60
2021/03/11 17:46:18;;;;;;;3.05;1.45;;;;;;;;;;5034977;28;20029;-60
2021/03/11 17:48:44;;;;;;;2.47;1.23;;;;;;;;;;5045631;28;20474;-61
2021/03/11 17:51:11;;;;;;;14.43;1.48;;;;;;;;;;5051189;28;20017;-60
2021/03/11 17:53:38;;;;;;;1.73;1.65;;;;;;;;;;5047179;28;20025;-61
2021/03/11 17:56:05;;;;;;;2.17;1.20;;;;;;;;;;5043962;28;20029;-60
2021/03/11 17:58:31;;;;;;;7.00;2.58;;;;;;;;;;5049172;28;20032;-61
2021/03/11 18:00:57;;;;;;;3.65;1.10;;;;;;;;;;5047895;28;20033;-60
2021/03/11 18:03:23;;;;;;;12.85;3.47;;;;;;;;;;5049141;28;20418;-59
2021/03/11 18:05:49;;;;;;;11.85;3.20;;;;;;;;;;5050314;28;20135;-61
2021/03/11 18:08:15;;;;;;;6.97;1.30;;;;;;;;;;5049075;28;20091;-61
2021/03/11 18:10:42;;;;;;;2.72;0.93;;;;;;;;;;5048579;28;20120;-61
2021/03/11 18:13:09;;;;;;;2.42;0.50;;;;;;;;;;5063215;28;20029;-61
2021/03/11 18:15:35;;;;;;;2.45;0.75;;;;;;;;;;5048794;28;20028;-60
2021/03/11 18:18:02;;;;;;;8.95;1.70;;;;;;;;;;5052729;28;20403;-61
2021/03/11 18:20:28;;;;;;;12.80;3.35;;;;;;;;;;5049758;28;20113;-60
2021/03/11 18:22:55;;;;;;;4.93;1.25;;;;;;;;;;5047659;28;20050;-60
2021/03/11 18:25:21;;;;;;;1.77;0.65;;;;;;;;;;5046169;28;20055;-60
2021/03/11 18:27:47;;;;;;;2.65;1.38;;;;;;;;;;5048378;28;20410;-60
2021/03/11 18:30:13;;;;;;;16.60;2.15;;;;;;;;;;5050092;28;20033;-60
2021/03/11 18:32:39;;;;;;;11.38;3.80;;;;;;;;;;5047452;28;20021;-60
2021/03/11 18:35:06;;;;;;;7.28;1.13;;;;;;;;;;5047135;28;20025;-60
2021/03/11 18:37:32;;;;;;;24.75;2.90;;;;;;;;;;5046994;28;20025;-60
2021/03/11 18:39:59;;;;;;;6.28;1.73;;;;;;;;;;5046951;28;20026;-64
2021/03/11 18:42:25;;;;;;;3.50;0.75;;;;;;;;;;5049637;28;20410;-60
2021/03/11 18:44:51;;;;;;;14.00;2.05;;;;;;;;;;5048249;28;20029;-61
2021/03/11 18:47:17;;;;;;;4.78;1.63;;;;;;;;;;5046906;28;20032;-60
2021/03/11 18:49:44;;;;;;;6.95;1.50;;;;;;;;;;5048740;28;20037;-60
2021/03/11 18:52:10;;;;;;;1.77;0.88;;;;;;;;;;5047367;28;20088;-60
2021/03/11 18:54:36;;;;;;;16.15;3.22;;;;;;;;;;5045428;28;20489;-60
2021/03/11 18:57:03;;;;;;;4.90;1.50;;;;;;;;;;5049994;28;20017;-60
2021/03/11 18:59:29;;;;;;;0.57;0.47;;;;;;;;;;5050040;28;20128;-59
2021/03/11 19:01:55;;;;;;;11.55;2.67;;;;;;;;;;5050646;28;20025;-59
2021/03/11 19:04:21;;;;;;;10.88;1.70;;;;;;;;;;5050639;28;20135;-62
2021/03/11 19:06:47;;;;;;;11.18;2.72;;;;;;;;;;5035163;28;20024;-59
2021/03/11 19:09:13;;;;;;;20.48;3.08;;;;;;;;;;5045844;28;20041;-60
2021/03/11 19:11:40;;;;;;;10.65;2.58;;;;;;;;;;5050176;28;20056;-60
2021/03/11 19:14:06;;;;;;;25.48;3.03;;;;;;;;;;5047098;28;20087;-59
2021/03/11 19:16:32;;;;;;;0.57;0.45;;;;;;;;;;5048068;28;20038;-60
2021/03/11 19:18:58;;;;;;;1.23;0.60;;;;;;;;;;5046922;28;20052;-59
2021/03/11 19:21:24;;;;;;;3.92;1.40;;;;;;;;;;5046825;28;20029;-61
2021/03/11 19:23:50;;;;;;;1.65;0.22;;;;;;;;;;5050016;28;20400;-61
2021/03/11 19:26:18;;;;;;;11.68;1.95;;;;;;;;;;5046201;28;20069;-59
2021/03/11 19:28:44;;;;;;;0.25;0.25;;;;;;;;;;5045306;28;20047;-62
2021/03/11 19:31:11;;;;;;;12.35;2.15;;;;;;;;;;5034971;28;20029;-61
2021/03/11 19:33:37;;;;;;;3.50;0.63;;;;;;;;;;5044261;28;20017;-61
2021/03/11 19:36:04;;;;;;;10.07;1.42;;;;;;;;;;5048040;28;20061;-61
2021/03/11 19:38:30;;;;;;;5.80;2.15;;;;;;;;;;5046006;28;20502;-61
2021/03/11 19:40:56;;;;;;;6.40;1.67;;;;;;;;;;5049131;28;20435;-61
2021/03/11 19:43:23;;;;;;;7.53;3.60;;;;;;;;;;5047418;28;20518;-61
2021/03/11 19:45:50;;;;;;;2.28;2.08;;;;;;;;;;5040899;28;20025;-61
2021/03/11 19:48:16;;;;;;;9.68;3.33;;;;;;;;;;5041087;28;20403;-61
2021/03/11 19:50:43;;;;;;;4.00;1.33;;;;;;;;;;5048382;28;20048;-61
2021/03/11 19:53:09;;;;;;;1.20;1.10;;;;;;;;;;5045621;28;20467;-61
2021/03/11 19:55:35;;;;;;;5.03;1.35;;;;;;;;;;5044892;28;20108;-61
2021/03/11 19:58:02;;;;;;;8.85;1.55;;;;;;;;;;5045026;28;20021;-61
2021/03/11 20:00:28;;;;;;;14.38;2.05;;;;;;;;;;5046620;28;20142;-61
2021/03/11 20:02:55;;;;;;;4.03;0.77;;;;;;;;;;5047181;28;20391;-61
2021/03/11 20:05:22;;;;;;;6.45;0.55;;;;;;;;;;5047119;28;20037;-60
2021/03/11 20:07:48;;;;;;;0.10;0.10;;;;;;;;;;5046413;28;20029;-61
2021/03/11 20:10:18;;;;;;;14.68;1.73;;;;;;;;;;5047699;28;20442;-61
2021/03/11 20:12:45;;;;;;;10.65;1.25;;;;;;;;;;5047765;28;20029;-60
2021/03/11 20:15:11;;;;;;;2.70;0.73;;;;;;;;;;5049540;28;20032;-62
2021/03/11 20:17:37;;;;;;;4.80;0.70;;;;;;;;;;5046589;28;20669;-61
2021/03/11 20:20:04;;;;;;;7.45;2.20;;;;;;;;;;5046629;28;20032;-61
2021/03/11 20:22:31;;;;;;;0.15;0.15;;;;;;;;;;5045196;28;20072;-61
2021/03/11 20:24:57;;;;;;;8.57;2.17;;;;;;;;;;5046527;28;20458;-61
2021/03/11 20:27:23;;;;;;;0.75;0.43;;;;;;;;;;5049093;28;20566;-61
2021/03/11 20:29:49;;;;;;;3.17;2.05;;;;;;;;;;5048079;28;20025;-60
2021/03/11 20:32:15;;;;;;;4.10;1.75;;;;;;;;;;5046657;28;20418;-61
2021/03/11 20:34:41;;;;;;;3.88;0.77;;;;;;;;;;5046664;28;20044;-61
2021/03/11 20:37:08;;;;;;;0.20;0.20;;;;;;;;;;5046084;28;20037;-61
2021/03/11 20:39:34;;;;;;;8.80;1.85;;;;;;;;;;5048735;28;20021;-61